Tenjinmaru No11 — JD3353 — position and weather

sailwx.info

Track history (hours):
 
Tides and Currents Weather Stations Pressure Air Temp Water Temp Dewpoint Dewpoint Depression Visibility Wind Speed Wind Dir Waves Ship Positions

Tenjinmaru No11

Last reported at 2016-Jul-26 18:33 UTC. Time now 2016-Jul-27 13:30 UTC.
Position N 35°47' E 140°60'.

Length 75 m; draft 4.8 m.

Type: Cargo ship. MMSI: 431003485.

Date/timePositionNaut miles runAvg speedWind from/ knotsBaromVisibWave heightAir tempDewpointWater temp
2016-Jul-26 18:33N 35°47' E 140°60'1211.5
2016-Jul-26 17:33N 35°37' E 140°52'1211.7
2016-Jul-26 16:33N 35°28' E 140°44'1211.9
2016-Jul-26 15:33N 35°18' E 140°36'1211.4
2016-Jul-26 14:33N 35°09' E 140°27'1211.7
2016-Jul-26 13:33N 35°02' E 140°15'1212.0
2016-Jul-26 12:32N 34°55' E 140°03'1211.7
2016-Jul-26 11:34N 34°52' E 139°49'1410.1
2016-Jul-26 10:11N 35°05' E 139°45'711.6
2016-Jul-26 09:33N 35°12' E 139°46'1110.5
2016-Jul-26 08:33N 35°22' E 139°42'7 7.2
2016-Jul-26 07:33N 35°21' E 139°51'0 0.0
2016-Jul-25 20:29N 35°21' E 139°51'0 0.1
2016-Jul-25 19:25N 35°21' E 139°51'0 0.1
2016-Jul-25 18:33N 35°21' E 139°51'0 0.0
2016-Jul-25 17:31N 35°21' E 139°51'0 0.1
2016-Jul-25 16:30N 35°21' E 139°51'0 0.0
2016-Jul-25 15:34N 35°21' E 139°51'0 0.4
2016-Jul-25 14:33N 35°21' E 139°51'0 0.0
2016-Jul-25 13:33N 35°21' E 139°51'0 0.0
2016-Jul-25 12:33N 35°21' E 139°51'0 0.0
2016-Jul-25 11:33N 35°21' E 139°51'0 0.0
2016-Jul-25 10:27N 35°21' E 139°51'0 0.0
2016-Jul-25 09:33N 35°21' E 139°51'5 5.2
2016-Jul-25 08:33N 35°26' E 139°50'1111.0
2016-Jul-25 07:33N 35°36' E 139°57'5 5.3
2016-Jul-25 06:33N 35°41' E 139°57'0 0.0
2016-Jul-25 05:22N 35°41' E 139°57'0 0.0
2016-Jul-25 04:22N 35°41' E 139°57'0 0.0
2016-Jul-25 03:34N 35°41' E 139°57'0 0.0
2016-Jul-25 02:19N 35°41' E 139°57'0 0.0
2016-Jul-25 01:28N 35°41' E 139°57'0 0.0
2016-Jul-25 00:31N 35°41' E 139°57'0 0.0
2016-Jul-24 23:34N 35°41' E 139°57'0 0.0
2016-Jul-24 22:28N 35°41' E 139°57'0 0.0
2016-Jul-24 21:34N 35°41' E 139°57'0 0.0
2016-Jul-24 20:28N 35°41' E 139°57'0 0.0
2016-Jul-24 19:31N 35°41' E 139°57'0 0.0
2016-Jul-24 18:28N 35°41' E 139°57'0 0.0
2016-Jul-24 17:10N 35°41' E 139°57'0 0.1
2016-Jul-24 16:31N 35°41' E 139°57'0 0.0
2016-Jul-24 15:31N 35°41' E 139°57'0 0.0
2016-Jul-24 14:31N 35°41' E 139°57'0 0.1
2016-Jul-24 13:34N 35°41' E 139°57'0 0.0
2016-Jul-24 12:25N 35°41' E 139°57'0 0.1
2016-Jul-24 11:31N 35°41' E 139°57'0 0.0
2016-Jul-24 10:31N 35°41' E 139°57'0 0.1
2016-Jul-24 09:33N 35°41' E 139°57'6 6.0
2016-Jul-24 08:33N 35°35' E 139°57'1211.6
2016-Jul-24 07:33N 35°26' E 139°48'1110.6
2016-Jul-24 06:33N 35°16' E 139°47'1010.1
2016-Jul-24 05:33N 35°06' E 139°44'242 9.2
2016-Jul-23 03:18N 34°06' E 134°59'911.5
2016-Jul-23 02:33N 34°15' E 134°58'2110.7
2016-Jul-23 00:33N 34°36' E 135°03'3 0.1
2016-Jul-21 04:34N 34°36' E 135°07'1111.2
2016-Jul-21 03:34N 34°39' E 135°20'5 3.9
2016-Jul-21 02:23N 34°42' E 135°24'0 0.0
2016-Jul-21 01:29N 34°42' E 135°24'0 0.0
2016-Jul-21 00:29N 34°42' E 135°24'0 0.0
2016-Jul-20 23:29N 34°42' E 135°24'0 0.0
2016-Jul-20 22:17N 34°42' E 135°24'0 0.0
2016-Jul-20 21:29N 34°42' E 135°24'0 0.0
2016-Jul-20 20:11N 34°42' E 135°24'0 0.0
2016-Jul-20 19:23N 34°42' E 135°24'0 0.0
2016-Jul-20 18:23N 34°42' E 135°24'0 0.0
2016-Jul-20 17:29N 34°42' E 135°24'0 0.0
2016-Jul-20 16:23N 34°42' E 135°24'0 0.0
2016-Jul-20 15:29N 34°42' E 135°24'0 0.0
2016-Jul-20 14:29N 34°42' E 135°24'0 0.0
2016-Jul-20 13:29N 34°42' E 135°24'0 0.0
2016-Jul-20 12:29N 34°42' E 135°24'0 0.0
2016-Jul-20 11:29N 34°42' E 135°24'0 0.0
2016-Jul-20 10:23N 34°42' E 135°24'0 0.0
2016-Jul-20 09:29N 34°42' E 135°24'0 0.0
2016-Jul-20 08:29N 34°42' E 135°24'0 0.0
2016-Jul-20 07:23N 34°42' E 135°24'0 0.0
2016-Jul-20 06:05N 34°42' E 135°24'0 0.0
2016-Jul-20 04:29N 34°42' E 135°24'0 0.0
2016-Jul-20 03:29N 34°42' E 135°24'0 0.0
2016-Jul-20 02:29N 34°42' E 135°24'0 0.0
2016-Jul-20 00:28N 34°42' E 135°24'0 0.0
2016-Jul-19 23:29N 34°42' E 135°24'0 0.0
2016-Jul-19 22:28N 34°42' E 135°24'0 0.0
2016-Jul-19 21:28N 34°42' E 135°24'0 0.0
2016-Jul-19 20:29N 34°42' E 135°24'0 0.0
2016-Jul-19 19:23N 34°42' E 135°24'0 0.0
2016-Jul-19 18:28N 34°42' E 135°24'0 0.0
2016-Jul-19 17:28N 34°42' E 135°24'0 0.0
2016-Jul-19 16:22N 34°42' E 135°24'0 0.0
2016-Jul-19 15:28N 34°42' E 135°24'0 0.0
2016-Jul-19 14:16N 34°42' E 135°24'0 0.0
2016-Jul-19 12:29N 34°42' E 135°24'0 0.0
2016-Jul-19 10:28N 34°42' E 135°24'0 0.0
2016-Jul-19 09:04N 34°42' E 135°24'0 0.0
2016-Jul-19 08:29N 34°42' E 135°24'0 0.0
2016-Jul-19 07:28N 34°42' E 135°24'0 0.0
2016-Jul-19 06:28N 34°42' E 135°24'0 0.0
2016-Jul-19 00:31N 34°42' E 135°24'0 0.0
2016-Jul-18 23:25N 34°42' E 135°24'0 0.0
2016-Jul-18 22:19N 34°42' E 135°24'0 0.0
2016-Jul-18 21:31N 34°42' E 135°24'0 0.0
2016-Jul-18 20:25N 34°42' E 135°24'0 0.0
2016-Jul-16 19:24N 34°42' E 135°24'  
Track history (hours):
 
Tides and Currents Weather Stations Pressure Air Temp Water Temp Dewpoint Dewpoint Depression Visibility Wind Speed Wind Dir Waves Ship Positions

Tenjinmaru No11

Last reported at 2016-Jul-26 18:33 UTC. Time now 2016-Jul-27 13:30 UTC.
Position N 35°47' E 140°60'.

Length 75 m; draft 4.8 m.

Type: Cargo ship. MMSI: 431003485.

Date/timePositionNaut miles runAvg speedWind from/ knotsBaromVisibWave heightAir tempDewpointWater temp
2016-Jul-26 18:33N 35°47' E 140°60'1211.5
2016-Jul-26 17:33N 35°37' E 140°52'1211.7
2016-Jul-26 16:33N 35°28' E 140°44'1211.9
2016-Jul-26 15:33N 35°18' E 140°36'1211.4
2016-Jul-26 14:33N 35°09' E 140°27'1211.7
2016-Jul-26 13:33N 35°02' E 140°15'1212.0
2016-Jul-26 12:32N 34°55' E 140°03'1211.7
2016-Jul-26 11:34N 34°52' E 139°49'1410.1
2016-Jul-26 10:11N 35°05' E 139°45'711.6
2016-Jul-26 09:33N 35°12' E 139°46'1110.5
2016-Jul-26 08:33N 35°22' E 139°42'7 7.2
2016-Jul-26 07:33N 35°21' E 139°51'0 0.0
2016-Jul-25 20:29N 35°21' E 139°51'0 0.1
2016-Jul-25 19:25N 35°21' E 139°51'0 0.1
2016-Jul-25 18:33N 35°21' E 139°51'0 0.0
2016-Jul-25 17:31N 35°21' E 139°51'0 0.1
2016-Jul-25 16:30N 35°21' E 139°51'0 0.0
2016-Jul-25 15:34N 35°21' E 139°51'0 0.4
2016-Jul-25 14:33N 35°21' E 139°51'0 0.0
2016-Jul-25 13:33N 35°21' E 139°51'0 0.0
2016-Jul-25 12:33N 35°21' E 139°51'0 0.0
2016-Jul-25 11:33N 35°21' E 139°51'0 0.0
2016-Jul-25 10:27N 35°21' E 139°51'0 0.0
2016-Jul-25 09:33N 35°21' E 139°51'5 5.2
2016-Jul-25 08:33N 35°26' E 139°50'1111.0
2016-Jul-25 07:33N 35°36' E 139°57'5 5.3
2016-Jul-25 06:33N 35°41' E 139°57'0 0.0
2016-Jul-25 05:22N 35°41' E 139°57'0 0.0
2016-Jul-25 04:22N 35°41' E 139°57'0 0.0
2016-Jul-25 03:34N 35°41' E 139°57'0 0.0
2016-Jul-25 02:19N 35°41' E 139°57'0 0.0
2016-Jul-25 01:28N 35°41' E 139°57'0 0.0
2016-Jul-25 00:31N 35°41' E 139°57'0 0.0
2016-Jul-24 23:34N 35°41' E 139°57'0 0.0
2016-Jul-24 22:28N 35°41' E 139°57'0 0.0
2016-Jul-24 21:34N 35°41' E 139°57'0 0.0
2016-Jul-24 20:28N 35°41' E 139°57'0 0.0
2016-Jul-24 19:31N 35°41' E 139°57'0 0.0
2016-Jul-24 18:28N 35°41' E 139°57'0 0.0
2016-Jul-24 17:10N 35°41' E 139°57'0 0.1
2016-Jul-24 16:31N 35°41' E 139°57'0 0.0
2016-Jul-24 15:31N 35°41' E 139°57'0 0.0
2016-Jul-24 14:31N 35°41' E 139°57'0 0.1
2016-Jul-24 13:34N 35°41' E 139°57'0 0.0
2016-Jul-24 12:25N 35°41' E 139°57'0 0.1
2016-Jul-24 11:31N 35°41' E 139°57'0 0.0
2016-Jul-24 10:31N 35°41' E 139°57'0 0.1
2016-Jul-24 09:33N 35°41' E 139°57'6 6.0
2016-Jul-24 08:33N 35°35' E 139°57'1211.6
2016-Jul-24 07:33N 35°26' E 139°48'1110.6
2016-Jul-24 06:33N 35°16' E 139°47'1010.1
2016-Jul-24 05:33N 35°06' E 139°44'242 9.2
2016-Jul-23 03:18N 34°06' E 134°59'911.5
2016-Jul-23 02:33N 34°15' E 134°58'2110.7
2016-Jul-23 00:33N 34°36' E 135°03'3 0.1
2016-Jul-21 04:34N 34°36' E 135°07'1111.2
2016-Jul-21 03:34N 34°39' E 135°20'5 3.9
2016-Jul-21 02:23N 34°42' E 135°24'0 0.0
2016-Jul-21 01:29N 34°42' E 135°24'0 0.0
2016-Jul-21 00:29N 34°42' E 135°24'0 0.0
2016-Jul-20 23:29N 34°42' E 135°24'0 0.0
2016-Jul-20 22:17N 34°42' E 135°24'0 0.0
2016-Jul-20 21:29N 34°42' E 135°24'0 0.0
2016-Jul-20 20:11N 34°42' E 135°24'0 0.0
2016-Jul-20 19:23N 34°42' E 135°24'0 0.0
2016-Jul-20 18:23N 34°42' E 135°24'0 0.0
2016-Jul-20 17:29N 34°42' E 135°24'0 0.0
2016-Jul-20 16:23N 34°42' E 135°24'0 0.0
2016-Jul-20 15:29N 34°42' E 135°24'0 0.0
2016-Jul-20 14:29N 34°42' E 135°24'0 0.0
2016-Jul-20 13:29N 34°42' E 135°24'0 0.0
2016-Jul-20 12:29N 34°42' E 135°24'0 0.0
2016-Jul-20 11:29N 34°42' E 135°24'0 0.0
2016-Jul-20 10:23N 34°42' E 135°24'0 0.0
2016-Jul-20 09:29N 34°42' E 135°24'0 0.0
2016-Jul-20 08:29N 34°42' E 135°24'0 0.0
2016-Jul-20 07:23N 34°42' E 135°24'0 0.0
2016-Jul-20 06:05N 34°42' E 135°24'0 0.0
2016-Jul-20 04:29N 34°42' E 135°24'0 0.0
2016-Jul-20 03:29N 34°42' E 135°24'0 0.0
2016-Jul-20 02:29N 34°42' E 135°24'0 0.0
2016-Jul-20 00:28N 34°42' E 135°24'0 0.0
2016-Jul-19 23:29N 34°42' E 135°24'0 0.0
2016-Jul-19 22:28N 34°42' E 135°24'0 0.0
2016-Jul-19 21:28N 34°42' E 135°24'0 0.0
2016-Jul-19 20:29N 34°42' E 135°24'0 0.0
2016-Jul-19 19:23N 34°42' E 135°24'0 0.0
2016-Jul-19 18:28N 34°42' E 135°24'0 0.0
2016-Jul-19 17:28N 34°42' E 135°24'0 0.0
2016-Jul-19 16:22N 34°42' E 135°24'0 0.0
2016-Jul-19 15:28N 34°42' E 135°24'0 0.0
2016-Jul-19 14:16N 34°42' E 135°24'0 0.0
2016-Jul-19 12:29N 34°42' E 135°24'0 0.0
2016-Jul-19 10:28N 34°42' E 135°24'0 0.0
2016-Jul-19 09:04N 34°42' E 135°24'0 0.0
2016-Jul-19 08:29N 34°42' E 135°24'0 0.0
2016-Jul-19 07:28N 34°42' E 135°24'0 0.0
2016-Jul-19 06:28N 34°42' E 135°24'0 0.0
2016-Jul-19 00:31N 34°42' E 135°24'0 0.0
2016-Jul-18 23:25N 34°42' E 135°24'0 0.0
2016-Jul-18 22:19N 34°42' E 135°24'0 0.0
2016-Jul-18 21:31N 34°42' E 135°24'0 0.0
2016-Jul-18 20:25N 34°42' E 135°24'0 0.0
2016-Jul-16 19:24N 34°42' E 135°24'  

Dump ship's entire track history